Rechercher aéroport 
image banner adimage banner adimage banner ad
image banner ad

53CL - Lofty Redwoods

Situé à Anchor Bay, United States

ICAO - 53CL, IATA -

Données fournies par Airmate  

Information générale

Coordonnées: N38°51'35" W123°35'26"
Élévation : 1317 feet MSL.
Variation magnétique : 17° East
Voir autres Aéroports à California

Données opérationnelles

Special qualification required
Heure actuelle UTC:
Heure actuelle locale:
Météo à : KUKI - Ukiah Muni ( 45 km )
METAR: KUKI 251456Z AUTO 15005KT 10SM CLR 16/09 A2996 RMK AO2 SLP136 T01610094 51012
TAF: KUKI 251128Z 2512/2612 15003KT P6SM SKC FM252200 26006G15KT P6SM SKC FM260300 VRB03KT P6SM SKC
Voir NOTAMs / SUP AIP / TFR affectant cet aéroport [VIEW]
Fréquences de communication: [VIEW]

Pistes:

Identifiant RWYQFULongueur (ft)Largeur (ft)SurfaceLDA (ft)
13320060OTHER
31320060OTHER

Coordonnées de l'aéroport

Adresse: Anchor Bay United States

Vue satellite de 53CL